METAR Data
IDs: Format: Raw Decoded Include TAF

Data at: 1841 UTC 07 Dec 2021

K6S2 071835Z AUTO 00000KT 10SM BKN038 OVC047 A3008 RMK AO2
K6S2 071815Z AUTO 00000KT 10SM SCT019 SCT032 OVC038 A3008 RMK AO2
K6S2 071755Z AUTO 00000KT 10SM SCT013 BKN019 OVC036 A3008 RMK AO2 60001
K6S2 071735Z AUTO 00000KT 7SM SCT015 SCT024 OVC034 A3008 RMK AO2
K6S2 071715Z AUTO 00000KT 10SM OVC013 A3007 RMK AO2
K6S2 071655Z AUTO 00000KT 10SM OVC011 A3007 RMK AO2
K6S2 071635Z AUTO 00000KT 10SM OVC013 A3007 RMK AO2
K6S2 071615Z AUTO 00000KT 10SM SCT010 BKN013 OVC039 A3006 RMK AO2
K6S2 071555Z AUTO 00000KT 7SM SCT013 BKN039 OVC049 A3005 RMK AO2
K6S2 071535Z AUTO 00000KT 10SM OVC013 A3005 RMK AO2
K6S2 071515Z AUTO 00000KT 10SM OVC013 A3004 RMK AO2
K6S2 071455Z AUTO 00000KT 10SM OVC011 A3003 RMK AO2 60001
K6S2 071435Z AUTO 00000KT 10SM OVC015 A3002 RMK AO2
K6S2 071415Z AUTO 00000KT 10SM SCT008 OVC017 A3001 RMK AO2
K6S2 071355Z AUTO 00000KT 3SM BR BKN008 OVC013 A3001 RMK AO2 P0001
K6S2 071335Z AUTO 00000KT 2 1/2SM BR BKN008 OVC012 A3001 RMK AO2 P0001
K6S2 071315Z AUTO 00000KT 2 1/2SM BR OVC008 A3001 RMK AO2
K6S2 071255Z AUTO 00000KT 2 1/2SM BR OVC010 A3001 RMK AO2
K6S2 071235Z AUTO 00000KT 2 1/2SM BR OVC010 A3001 RMK AO2
K6S2 071215Z AUTO 00000KT 3SM -DZ SCT001 BKN008 OVC012 A3001 RMK AO2
K6S2 071155Z AUTO 00000KT 1 3/4SM -RA BKN001 OVC008 A3002 RMK AO2 P0001 60003 70094
K6S2 071115Z AUTO 00000KT 10SM OVC018 A3002 RMK AO2
K6S2 071055Z AUTO 00000KT 7SM OVC016 A3001 RMK AO2
K6S2 071035Z AUTO 00000KT 10SM BKN016 OVC024 A3001 RMK AO2
K6S2 071015Z AUTO 00000KT 10SM BKN016 OVC024 A3000 RMK AO2
K6S2 070935Z AUTO 00000KT 10SM OVC016 A3000 RMK AO2
K6S2 070915Z AUTO 00000KT 7SM OVC014 A3000 RMK AO2
K6S2 070715Z AUTO 00000KT 2 1/2SM -DZ OVC010 A3000 RMK AO2 P0001
K6S2 070655Z AUTO 00000KT 1 3/4SM -DZ OVC010 A3000 RMK AO2 P0001
K6S2 070635Z AUTO 00000KT 1 3/4SM -RA OVC008 A3000 RMK AO2 P0001
K6S2 070615Z AUTO 00000KT 1 3/4SM -DZ OVC010 A3000 RMK AO2
K6S2 070555Z AUTO 00000KT 2SM BR SCT001 OVC010 A3000 RMK AO2 60016
K6S2 070535Z AUTO 00000KT 2SM BR BKN001 OVC010 A3000 RMK AO2
K6S2 070455Z AUTO 00000KT 2 1/2SM BR OVC014 09/09 A2999 RMK AO2 T00850085
K6S2 070435Z AUTO 09003KT 2 1/2SM BR OVC014 09/09 A2999 RMK AO2 T00860086
K6S2 070415Z AUTO 00000KT 3SM -RA OVC011 09/09 A3000 RMK AO2 T00850085
K6S2 070355Z AUTO 00000KT 4SM -DZ SCT001 SCT005 OVC011 09/09 A2999 RMK AO2 P0003 T00850085
K6S2 070335Z AUTO 00000KT 4SM -RA OVC011 09/09 A3000 RMK AO2 P0002 T00860086
K6S2 070315Z AUTO 00000KT 2 1/2SM DZ BKN013 OVC019 09/09 A3000 RMK AO2 P0001 T00900090
K6S2 070255Z AUTO 00000KT 2SM -RA OVC014 09/09 A2999 RMK AO2 P0008 60012 T00900090
K6S2 070235Z AUTO 00000KT 2SM -RA OVC015 09/09 A2999 RMK AO2 P0005 T00910091
K6S2 070215Z AUTO 00000KT 2 1/2SM -RA SCT009 OVC013 09/09 A2999 RMK AO2 P0002 T00910091
K6S2 070155Z AUTO 00000KT 3SM -RA BKN009 OVC013 09/09 A2999 RMK AO2 P0002 T00920092
K6S2 070135Z AUTO 00000KT 7SM -RA BKN011 OVC019 09/09 A2999 RMK AO2 P0001 T00930093
K6S2 070115Z AUTO 14003KT 7SM -RA SCT013 OVC019 09/09 A2999 RMK AO2 P0001 T00930093
K6S2 070055Z AUTO 12003KT 10SM OVC019 09/09 A3000 RMK AO2 P0001 T00920092
K6S2 070035Z AUTO 13003KT 10SM -RA OVC017 09/09 A3000 RMK AO2 P0001 T00910091
K6S2 070015Z AUTO 00000KT 7SM -RA OVC015 09/09 A3001 RMK AO2 P0001 T00910091
K6S2 062355Z AUTO 15004KT 10SM OVC019 09/09 A3001 RMK AO2 P0005 60060 T00900090 10090 20066
K6S2 062335Z AUTO 15003KT 3SM -RA SCT021 OVC038 09/09 A3001 RMK AO2 P0005 T00880088
K6S2 062315Z AUTO 13003KT 5SM -RA SCT023 SCT028 OVC038 09/09 A3002 RMK AO2 P0004 T00870087
K6S2 062255Z AUTO 14003KT 2 1/2SM RA BKN026 OVC033 09/09 A3002 RMK AO2 VIS 2V3 P0027 T00850085
K6S2 062235Z AUTO 13003KT 2 1/2SM RA BKN026 OVC034 08/08 A3004 RMK AO2 P0018 T00820082
K6S2 062215Z AUTO 00000KT 1 1/2SM RA OVC026 08/08 A3005 RMK AO2 P0008 T00790079
K6S2 062155Z AUTO 10003KT 2SM RA SCT020 OVC028 08/08 A3005 RMK AO2 P0022 T00760076
K6S2 062135Z AUTO 00000KT 1 1/2SM RA OVC024 08/08 A3007 RMK AO2 P0013 T00770077
K6S2 062115Z AUTO 00000KT 3SM RA OVC022 08/08 A3008 RMK AO2 P0003 T00800080
K6S2 062055Z AUTO 00000KT 7SM -RA OVC020 08/08 A3006 RMK AO2 60001 T00800080
K6S2 062035Z AUTO 00000KT 10SM -DZ OVC020 08/08 A3005 RMK AO2 T00800080
K6S2 062015Z AUTO 00000KT 10SM OVC018 08/08 A3007 RMK AO2 T00800080
K6S2 061955Z AUTO 00000KT 10SM OVC016 08/08 A3008 RMK AO2 T00800080
K6S2 061935Z AUTO 12003KT 10SM -RA 08/08 A3009 RMK AO2 T00780078
K6S2 061915Z AUTO 00000KT 10SM 08/08 A3009 RMK AO2 T00750075
K6S2 061855Z AUTO 00000KT 10SM -RA 08/08 A3010 RMK AO2 P0001 T00770077
K6S2 061835Z AUTO 00000KT 10SM 08/07 A3012 RMK AO2 T00750072
K6S2 061815Z AUTO 13003KT 10SM OVC024 07/07 A3011 RMK AO2 T00700070
K6S2 061755Z AUTO 10003KT 10SM -RA OVC024 07/07 A3013 RMK AO2 60014 T00660066 10066 20052
K6S2 061715Z AUTO 00000KT 4SM BR OVC028 06/06 A3014 RMK AO2 T00610061
K6S2 061655Z AUTO 00000KT 3SM BR OVC030 06/06 A3014 RMK AO2 P0005 T00580058
K6S2 061635Z AUTO 00000KT 5SM -RA OVC032 06/06 A3015 RMK AO2 P0005 T00570057
K6S2 061615Z AUTO 00000KT 4SM RA SCT028 OVC032 06/06 A3015 RMK AO2 P0003 T00560056
K6S2 061555Z AUTO 00000KT 5SM -RA OVC028 06/06 A3016 RMK AO2 P0004 T00570057
K6S2 061535Z AUTO 00000KT 5SM -RA OVC032 06/06 A3016 RMK AO2 P0002 T00560056
K6S2 061515Z AUTO 00000KT 10SM -RA BKN035 OVC042 06/06 A3016 RMK AO2 P0001 T00560056
K6S2 061455Z AUTO 00000KT 10SM -DZ OVC044 06/06 A3017 RMK AO2 60005 T00550055
K6S2 061435Z AUTO 00000KT 10SM -DZ OVC048 06/06 A3017 RMK AO2 T00550055
K6S2 061415Z AUTO 00000KT 10SM OVC050 06/06 A3017 RMK AO2 T00550055
K6S2 061355Z AUTO 00000KT 10SM OVC060 06/06 A3016 RMK AO2 T00550055
K6S2 061335Z AUTO 00000KT 10SM OVC060 06/06 A3018 RMK AO2 T00550055
K6S2 061315Z AUTO 00000KT 10SM -RA SCT033 SCT041 OVC070 05/05 A3019 RMK AO2 T00530053
K6S2 061255Z AUTO 00000KT 10SM -RA BKN036 BKN046 OVC060 05/05 A3021 RMK AO2 P0005 T00530053
K6S2 061235Z AUTO 00000KT 7SM -RA BKN038 BKN045 OVC065 05/05 A3022 RMK AO2 P0003 T00520052
K6S2 061215Z AUTO 00000KT 7SM -RA SCT035 OVC043 05/05 A3022 RMK AO2 P0001 T00520052
K6S2 061155Z AUTO 09003KT 10SM -RA SCT031 BKN043 OVC050 05/05 A3023 RMK AO2 P0004 60004 70004 T00530053 10061 20053
K6S2 061135Z AUTO 10003KT 10SM -RA BKN042 OVC060 06/06 A3025 RMK AO2 P0002 T00550055
K6S2 061115Z AUTO 08003KT 10SM -RA BKN065 BKN070 06/05 A3026 RMK AO2 T00570050
K6S2 061055Z AUTO 00000KT 10SM SCT070 06/05 A3027 RMK AO2 T00580045
K6S2 061035Z AUTO 00000KT 10SM CLR 06/04 A3028 RMK AO2 T00580043
K6S2 061015Z AUTO 00000KT 10SM CLR 06/04 A3028 RMK AO2 T00570040
K6S2 060955Z AUTO 08003KT 10SM CLR 06/04 A3028 RMK AO2 T00570043
K6S2 060935Z AUTO 00000KT 10SM CLR 06/04 A3029 RMK AO2 T00560040
K6S2 060915Z AUTO 00000KT 10SM CLR 06/04 A3030 RMK AO2 T00570037
K6S2 060855Z AUTO 00000KT 10SM CLR 06/04 A3031 RMK AO2 T00580038
K6S2 060835Z AUTO 00000KT 10SM CLR 06/03 A3030 RMK AO2 T00600032
K6S2 060815Z AUTO 00000KT 10SM CLR 06/03 A3028 RMK AO2 T00610029
K6S2 060755Z AUTO 00000KT 10SM SCT100 06/03 A3029 RMK AO2 T00600028
K6S2 060735Z AUTO 00000KT 10SM CLR 06/03 A3030 RMK AO2 T00600027
K6S2 060715Z AUTO 08006KT 10SM CLR 06/03 A3026 RMK AO2 T00580025
K6S2 060655Z AUTO 06003KT 10SM CLR 06/03 A3031 RMK AO2 T00600028 400910020